sensor_id;sensor_type;location;lat;lon;timestamp;temperature;humidity
83770;DHT22;73763;48.936;9.300;2023-12-14T00:02:15;5.90;99.20
83770;DHT22;73763;48.936;9.300;2023-12-14T00:04:41;5.90;99.20
83770;DHT22;73763;48.936;9.300;2023-12-14T00:07:06;5.90;99.20
83770;DHT22;73763;48.936;9.300;2023-12-14T00:09:32;5.90;99.20
83770;DHT22;73763;48.936;9.300;2023-12-14T00:11:57;6.00;99.20
83770;DHT22;73763;48.936;9.300;2023-12-14T00:14:26;5.90;99.20
83770;DHT22;73763;48.936;9.300;2023-12-14T00:16:52;6.00;99.20
83770;DHT22;73763;48.936;9.300;2023-12-14T00:19:17;5.90;99.20
83770;DHT22;73763;48.936;9.300;2023-12-14T00:21:43;6.00;99.20
83770;DHT22;73763;48.936;9.300;2023-12-14T00:24:08;5.90;99.20
83770;DHT22;73763;48.936;9.300;2023-12-14T00:26:34;6.00;99.20
83770;DHT22;73763;48.936;9.300;2023-12-14T00:28:59;6.00;99.20
83770;DHT22;73763;48.936;9.300;2023-12-14T00:31:25;6.10;99.20
83770;DHT22;73763;48.936;9.300;2023-12-14T00:33:50;6.00;99.10
83770;DHT22;73763;48.936;9.300;2023-12-14T00:36:19;6.10;99.10
83770;DHT22;73763;48.936;9.300;2023-12-14T00:38:45;6.00;99.10
83770;DHT22;73763;48.936;9.300;2023-12-14T00:41:10;6.10;99.20
83770;DHT22;73763;48.936;9.300;2023-12-14T00:43:36;6.10;99.20
83770;DHT22;73763;48.936;9.300;2023-12-14T00:46:03;6.10;99.20
83770;DHT22;73763;48.936;9.300;2023-12-14T00:48:28;6.10;99.10
83770;DHT22;73763;48.936;9.300;2023-12-14T00:50:54;6.10;99.10
83770;DHT22;73763;48.936;9.300;2023-12-14T00:53:19;6.10;99.00
83770;DHT22;73763;48.936;9.300;2023-12-14T00:55:45;6.10;99.00
83770;DHT22;73763;48.936;9.300;2023-12-14T00:58:10;6.10;99.00
83770;DHT22;73763;48.936;9.300;2023-12-14T01:00:36;6.10;99.00
83770;DHT22;73763;48.936;9.300;2023-12-14T01:03:02;6.10;99.00
83770;DHT22;73763;48.936;9.300;2023-12-14T01:05:27;6.10;98.90
83770;DHT22;73763;48.936;9.300;2023-12-14T01:07:53;6.10;98.90
83770;DHT22;73763;48.936;9.300;2023-12-14T01:10:18;6.10;98.90
83770;DHT22;73763;48.936;9.300;2023-12-14T01:12:44;6.10;98.90
83770;DHT22;73763;48.936;9.300;2023-12-14T01:15:10;6.00;98.90
83770;DHT22;73763;48.936;9.300;2023-12-14T01:17:35;6.00;99.00
83770;DHT22;73763;48.936;9.300;2023-12-14T01:20:06;6.10;99.00
83770;DHT22;73763;48.936;9.300;2023-12-14T01:22:31;6.10;99.00
83770;DHT22;73763;48.936;9.300;2023-12-14T01:24:57;6.10;98.90
83770;DHT22;73763;48.936;9.300;2023-12-14T01:27:22;6.00;99.00
83770;DHT22;73763;48.936;9.300;2023-12-14T01:29:48;6.00;99.10
83770;DHT22;73763;48.936;9.300;2023-12-14T01:32:13;6.00;99.00
83770;DHT22;73763;48.936;9.300;2023-12-14T01:34:39;6.00;98.90
83770;DHT22;73763;48.936;9.300;2023-12-14T01:37:05;6.00;98.90
83770;DHT22;73763;48.936;9.300;2023-12-14T01:39:31;6.00;98.90
83770;DHT22;73763;48.936;9.300;2023-12-14T01:41:56;6.00;98.90
83770;DHT22;73763;48.936;9.300;2023-12-14T01:44:22;5.90;98.80
83770;DHT22;73763;48.936;9.300;2023-12-14T01:46:47;5.90;98.90
83770;DHT22;73763;48.936;9.300;2023-12-14T01:49:13;5.90;99.00
83770;DHT22;73763;48.936;9.300;2023-12-14T01:51:38;5.90;99.00
83770;DHT22;73763;48.936;9.300;2023-12-14T01:54:04;5.80;99.00
83770;DHT22;73763;48.936;9.300;2023-12-14T01:56:30;5.80;99.00
83770;DHT22;73763;48.936;9.300;2023-12-14T01:58:55;5.80;99.10
83770;DHT22;73763;48.936;9.300;2023-12-14T02:01:30;5.80;99.40
83770;DHT22;73763;48.936;9.300;2023-12-14T02:03:58;5.80;99.00
83770;DHT22;73763;48.936;9.300;2023-12-14T02:06:24;5.80;99.00
83770;DHT22;73763;48.936;9.300;2023-12-14T02:08:50;5.80;98.90
83770;DHT22;73763;48.936;9.300;2023-12-14T02:11:15;5.80;98.80
83770;DHT22;73763;48.936;9.300;2023-12-14T02:13:41;5.80;98.70
83770;DHT22;73763;48.936;9.300;2023-12-14T02:16:06;5.80;98.70
83770;DHT22;73763;48.936;9.300;2023-12-14T02:18:32;5.80;98.80
83770;DHT22;73763;48.936;9.300;2023-12-14T02:20:57;5.80;98.80
83770;DHT22;73763;48.936;9.300;2023-12-14T02:23:23;5.80;98.80
83770;DHT22;73763;48.936;9.300;2023-12-14T02:25:48;5.80;98.80
83770;DHT22;73763;48.936;9.300;2023-12-14T02:28:14;5.80;98.80
83770;DHT22;73763;48.936;9.300;2023-12-14T02:30:39;5.80;98.80
83770;DHT22;73763;48.936;9.300;2023-12-14T02:33:05;5.90;98.80
83770;DHT22;73763;48.936;9.300;2023-12-14T02:35:30;5.80;98.70
83770;DHT22;73763;48.936;9.300;2023-12-14T02:37:56;5.90;98.70
83770;DHT22;73763;48.936;9.300;2023-12-14T02:40:21;5.90;98.60
83770;DHT22;73763;48.936;9.300;2023-12-14T02:42:47;5.90;98.60
83770;DHT22;73763;48.936;9.300;2023-12-14T02:45:12;5.90;98.60
83770;DHT22;73763;48.936;9.300;2023-12-14T02:47:38;5.90;98.60
83770;DHT22;73763;48.936;9.300;2023-12-14T02:50:04;5.90;98.70
83770;DHT22;73763;48.936;9.300;2023-12-14T02:52:29;5.80;98.80
83770;DHT22;73763;48.936;9.300;2023-12-14T02:54:55;5.80;98.90
83770;DHT22;73763;48.936;9.300;2023-12-14T02:57:20;5.80;99.00
83770;DHT22;73763;48.936;9.300;2023-12-14T02:59:46;5.90;99.00
83770;DHT22;73763;48.936;9.300;2023-12-14T03:02:11;5.80;99.00
83770;DHT22;73763;48.936;9.300;2023-12-14T03:04:38;5.80;99.00
83770;DHT22;73763;48.936;9.300;2023-12-14T03:07:04;5.90;99.00
83770;DHT22;73763;48.936;9.300;2023-12-14T03:09:29;5.90;99.00
83770;DHT22;73763;48.936;9.300;2023-12-14T03:11:55;5.90;99.00
83770;DHT22;73763;48.936;9.300;2023-12-14T03:14:20;5.90;98.90
83770;DHT22;73763;48.936;9.300;2023-12-14T03:16:46;5.90;99.00
83770;DHT22;73763;48.936;9.300;2023-12-14T03:19:11;5.90;99.00
83770;DHT22;73763;48.936;9.300;2023-12-14T03:21:37;6.00;98.90
83770;DHT22;73763;48.936;9.300;2023-12-14T03:24:03;6.00;98.80
83770;DHT22;73763;48.936;9.300;2023-12-14T03:26:28;6.00;98.70
83770;DHT22;73763;48.936;9.300;2023-12-14T03:28:54;6.00;98.60
83770;DHT22;73763;48.936;9.300;2023-12-14T03:31:19;6.00;98.60
83770;DHT22;73763;48.936;9.300;2023-12-14T03:33:45;6.00;98.70
83770;DHT22;73763;48.936;9.300;2023-12-14T03:36:11;6.00;98.70
83770;DHT22;73763;48.936;9.300;2023-12-14T03:38:36;6.00;98.70
83770;DHT22;73763;48.936;9.300;2023-12-14T03:41:02;6.00;98.70
83770;DHT22;73763;48.936;9.300;2023-12-14T03:43:27;6.00;98.70
83770;DHT22;73763;48.936;9.300;2023-12-14T03:45:53;5.90;98.70
83770;DHT22;73763;48.936;9.300;2023-12-14T03:48:18;5.90;98.80
83770;DHT22;73763;48.936;9.300;2023-12-14T03:50:44;6.00;98.90
83770;DHT22;73763;48.936;9.300;2023-12-14T03:53:10;5.90;98.90
83770;DHT22;73763;48.936;9.300;2023-12-14T03:55:35;6.00;98.90
83770;DHT22;73763;48.936;9.300;2023-12-14T03:58:01;6.00;98.80
83770;DHT22;73763;48.936;9.300;2023-12-14T04:00:26;6.00;98.80
83770;DHT22;73763;48.936;9.300;2023-12-14T04:02:52;6.00;98.80
83770;DHT22;73763;48.936;9.300;2023-12-14T04:05:18;6.00;98.80
83770;DHT22;73763;48.936;9.300;2023-12-14T04:07:43;6.00;98.80
83770;DHT22;73763;48.936;9.300;2023-12-14T04:10:09;6.00;98.80
83770;DHT22;73763;48.936;9.300;2023-12-14T04:12:39;6.00;98.80
83770;DHT22;73763;48.936;9.300;2023-12-14T04:15:06;6.00;98.80
83770;DHT22;73763;48.936;9.300;2023-12-14T04:17:32;6.00;98.90
83770;DHT22;73763;48.936;9.300;2023-12-14T04:19:58;6.00;98.90
83770;DHT22;73763;48.936;9.300;2023-12-14T04:22:23;6.00;99.00
83770;DHT22;73763;48.936;9.300;2023-12-14T04:24:50;6.00;99.10
83770;DHT22;73763;48.936;9.300;2023-12-14T04:27:16;6.10;99.10
83770;DHT22;73763;48.936;9.300;2023-12-14T04:29:42;6.10;99.10
83770;DHT22;73763;48.936;9.300;2023-12-14T04:32:07;6.10;99.10
83770;DHT22;73763;48.936;9.300;2023-12-14T04:34:33;6.10;99.10
83770;DHT22;73763;48.936;9.300;2023-12-14T04:36:58;6.10;99.00
83770;DHT22;73763;48.936;9.300;2023-12-14T04:39:25;6.10;99.10
83770;DHT22;73763;48.936;9.300;2023-12-14T04:41:51;6.10;99.10
83770;DHT22;73763;48.936;9.300;2023-12-14T04:44:16;6.10;99.20
83770;DHT22;73763;48.936;9.300;2023-12-14T04:46:42;6.10;99.20
83770;DHT22;73763;48.936;9.300;2023-12-14T04:49:08;6.10;99.20
83770;DHT22;73763;48.936;9.300;2023-12-14T04:51:33;6.10;99.20
83770;DHT22;73763;48.936;9.300;2023-12-14T04:53:59;6.10;99.20
83770;DHT22;73763;48.936;9.300;2023-12-14T04:56:24;6.10;99.20
83770;DHT22;73763;48.936;9.300;2023-12-14T04:58:50;6.00;99.30
83770;DHT22;73763;48.936;9.300;2023-12-14T05:01:15;6.00;99.30
83770;DHT22;73763;48.936;9.300;2023-12-14T05:03:41;6.10;99.30
83770;DHT22;73763;48.936;9.300;2023-12-14T05:06:07;6.10;99.40
83770;DHT22;73763;48.936;9.300;2023-12-14T05:08:32;6.10;99.40
83770;DHT22;73763;48.936;9.300;2023-12-14T05:10:58;6.10;99.30
83770;DHT22;73763;48.936;9.300;2023-12-14T05:13:23;6.10;99.30
83770;DHT22;73763;48.936;9.300;2023-12-14T05:15:49;6.10;99.30
83770;DHT22;73763;48.936;9.300;2023-12-14T05:18:14;6.10;99.30
83770;DHT22;73763;48.936;9.300;2023-12-14T05:20:40;6.10;99.70
83770;DHT22;73763;48.936;9.300;2023-12-14T05:23:05;6.10;99.30
83770;DHT22;73763;48.936;9.300;2023-12-14T05:25:31;6.10;99.40
83770;DHT22;73763;48.936;9.300;2023-12-14T05:27:56;6.10;99.50
83770;DHT22;73763;48.936;9.300;2023-12-14T05:30:22;6.10;99.50
83770;DHT22;73763;48.936;9.300;2023-12-14T05:32:47;6.10;99.50
83770;DHT22;73763;48.936;9.300;2023-12-14T05:35:13;6.10;99.50
83770;DHT22;73763;48.936;9.300;2023-12-14T05:37:39;6.10;99.50
83770;DHT22;73763;48.936;9.300;2023-12-14T05:40:05;6.10;99.60
83770;DHT22;73763;48.936;9.300;2023-12-14T05:42:30;6.20;99.60
83770;DHT22;73763;48.936;9.300;2023-12-14T05:44:56;6.20;99.50
83770;DHT22;73763;48.936;9.300;2023-12-14T05:47:21;6.30;99.60
83770;DHT22;73763;48.936;9.300;2023-12-14T05:49:47;6.30;99.50
83770;DHT22;73763;48.936;9.300;2023-12-14T05:52:13;6.20;99.50
83770;DHT22;73763;48.936;9.300;2023-12-14T05:54:39;6.30;99.50
83770;DHT22;73763;48.936;9.300;2023-12-14T05:57:04;6.30;99.50
83770;DHT22;73763;48.936;9.300;2023-12-14T05:59:30;6.20;99.50
83770;DHT22;73763;48.936;9.300;2023-12-14T06:01:59;6.20;99.50
83770;DHT22;73763;48.936;9.300;2023-12-14T06:04:26;6.20;99.60
83770;DHT22;73763;48.936;9.300;2023-12-14T06:06:52;6.20;99.60
83770;DHT22;73763;48.936;9.300;2023-12-14T06:09:17;6.20;99.60
83770;DHT22;73763;48.936;9.300;2023-12-14T06:11:44;6.30;99.70
83770;DHT22;73763;48.936;9.300;2023-12-14T06:14:09;6.30;99.90
83770;DHT22;73763;48.936;9.300;2023-12-14T06:16:35;6.30;99.70
83770;DHT22;73763;48.936;9.300;2023-12-14T06:19:00;6.30;99.70
83770;DHT22;73763;48.936;9.300;2023-12-14T06:21:26;6.30;99.70
83770;DHT22;73763;48.936;9.300;2023-12-14T06:23:52;6.30;99.80
83770;DHT22;73763;48.936;9.300;2023-12-14T06:26:17;6.30;99.80
83770;DHT22;73763;48.936;9.300;2023-12-14T06:28:43;6.30;99.90
83770;DHT22;73763;48.936;9.300;2023-12-14T06:31:13;6.30;99.80
83770;DHT22;73763;48.936;9.300;2023-12-14T06:33:38;6.40;99.80
83770;DHT22;73763;48.936;9.300;2023-12-14T06:36:04;6.40;99.80
83770;DHT22;73763;48.936;9.300;2023-12-14T06:38:29;6.30;99.90
83770;DHT22;73763;48.936;9.300;2023-12-14T06:40:55;6.30;99.90
83770;DHT22;73763;48.936;9.300;2023-12-14T06:43:20;6.30;99.90
83770;DHT22;73763;48.936;9.300;2023-12-14T06:45:46;6.20;99.90
83770;DHT22;73763;48.936;9.300;2023-12-14T06:48:11;6.20;99.90
83770;DHT22;73763;48.936;9.300;2023-12-14T06:50:37;6.20;99.90
83770;DHT22;73763;48.936;9.300;2023-12-14T06:53:02;6.20;99.90
83770;DHT22;73763;48.936;9.300;2023-12-14T06:55:28;6.20;99.90
83770;DHT22;73763;48.936;9.300;2023-12-14T06:57:53;6.20;99.90
83770;DHT22;73763;48.936;9.300;2023-12-14T07:00:19;6.30;99.90
83770;DHT22;73763;48.936;9.300;2023-12-14T07:02:45;6.30;99.90
83770;DHT22;73763;48.936;9.300;2023-12-14T07:05:10;6.40;99.90
83770;DHT22;73763;48.936;9.300;2023-12-14T07:07:36;6.30;99.90
83770;DHT22;73763;48.936;9.300;2023-12-14T07:10:01;6.30;99.90
83770;DHT22;73763;48.936;9.300;2023-12-14T07:12:27;6.30;99.90
83770;DHT22;73763;48.936;9.300;2023-12-14T07:14:52;6.40;99.90
83770;DHT22;73763;48.936;9.300;2023-12-14T07:17:18;6.50;99.90
83770;DHT22;73763;48.936;9.300;2023-12-14T07:19:43;6.50;99.90
83770;DHT22;73763;48.936;9.300;2023-12-14T07:22:09;6.50;99.90
83770;DHT22;73763;48.936;9.300;2023-12-14T07:24:34;6.50;99.90
83770;DHT22;73763;48.936;9.300;2023-12-14T07:27:00;6.50;99.90
83770;DHT22;73763;48.936;9.300;2023-12-14T07:29:26;6.40;99.90
83770;DHT22;73763;48.936;9.300;2023-12-14T07:31:51;6.40;99.90
83770;DHT22;73763;48.936;9.300;2023-12-14T07:34:17;6.50;99.90
83770;DHT22;73763;48.936;9.300;2023-12-14T07:36:42;6.50;99.90
83770;DHT22;73763;48.936;9.300;2023-12-14T07:39:08;6.50;99.90
83770;DHT22;73763;48.936;9.300;2023-12-14T07:41:33;6.50;99.90
83770;DHT22;73763;48.936;9.300;2023-12-14T07:43:59;6.50;99.90
83770;DHT22;73763;48.936;9.300;2023-12-14T07:46:24;6.50;99.90
83770;DHT22;73763;48.936;9.300;2023-12-14T07:48:50;6.50;99.90
83770;DHT22;73763;48.936;9.300;2023-12-14T07:51:15;6.60;99.90
83770;DHT22;73763;48.936;9.300;2023-12-14T07:53:41;6.60;99.90
83770;DHT22;73763;48.936;9.300;2023-12-14T07:56:07;6.60;99.90
83770;DHT22;73763;48.936;9.300;2023-12-14T07:58:32;6.70;99.90
83770;DHT22;73763;48.936;9.300;2023-12-14T08:00:58;6.70;99.90
83770;DHT22;73763;48.936;9.300;2023-12-14T08:03:23;6.80;99.90
83770;DHT22;73763;48.936;9.300;2023-12-14T08:05:49;6.80;99.90
83770;DHT22;73763;48.936;9.300;2023-12-14T08:08:14;6.80;99.90
83770;DHT22;73763;48.936;9.300;2023-12-14T08:10:40;6.90;99.90
83770;DHT22;73763;48.936;9.300;2023-12-14T08:13:05;6.90;99.70
83770;DHT22;73763;48.936;9.300;2023-12-14T08:15:31;6.90;99.60
83770;DHT22;73763;48.936;9.300;2023-12-14T08:17:56;6.90;99.70
83770;DHT22;73763;48.936;9.300;2023-12-14T08:20:22;7.00;99.70
83770;DHT22;73763;48.936;9.300;2023-12-14T08:22:47;7.00;99.70
83770;DHT22;73763;48.936;9.300;2023-12-14T08:25:14;7.00;99.60
83770;DHT22;73763;48.936;9.300;2023-12-14T08:27:40;7.10;99.30
83770;DHT22;73763;48.936;9.300;2023-12-14T08:30:06;7.10;99.10
83770;DHT22;73763;48.936;9.300;2023-12-14T08:32:31;7.10;99.10
83770;DHT22;73763;48.936;9.300;2023-12-14T08:34:57;7.20;99.30
83770;DHT22;73763;48.936;9.300;2023-12-14T08:37:22;7.20;99.30
83770;DHT22;73763;48.936;9.300;2023-12-14T08:39:48;7.40;99.10
83770;DHT22;73763;48.936;9.300;2023-12-14T08:42:13;7.40;98.80
83770;DHT22;73763;48.936;9.300;2023-12-14T08:44:39;7.40;98.50
83770;DHT22;73763;48.936;9.300;2023-12-14T08:47:05;7.50;98.30
83770;DHT22;73763;48.936;9.300;2023-12-14T08:49:32;7.50;98.00
83770;DHT22;73763;48.936;9.300;2023-12-14T08:51:57;7.50;98.10
83770;DHT22;73763;48.936;9.300;2023-12-14T08:54:23;7.50;98.10
83770;DHT22;73763;48.936;9.300;2023-12-14T08:56:48;7.50;98.00
83770;DHT22;73763;48.936;9.300;2023-12-14T08:59:14;7.50;97.80
83770;DHT22;73763;48.936;9.300;2023-12-14T09:01:39;7.50;97.90
83770;DHT22;73763;48.936;9.300;2023-12-14T09:04:05;7.60;97.90
83770;DHT22;73763;48.936;9.300;2023-12-14T09:06:30;7.60;97.90
83770;DHT22;73763;48.936;9.300;2023-12-14T09:08:56;7.70;97.90
83770;DHT22;73763;48.936;9.300;2023-12-14T09:11:21;7.70;97.80
83770;DHT22;73763;48.936;9.300;2023-12-14T09:13:47;7.80;97.80
83770;DHT22;73763;48.936;9.300;2023-12-14T09:16:13;7.90;97.50
83770;DHT22;73763;48.936;9.300;2023-12-14T09:18:39;8.00;97.00
83770;DHT22;73763;48.936;9.300;2023-12-14T09:21:05;8.00;96.80
83770;DHT22;73763;48.936;9.300;2023-12-14T09:23:30;7.90;96.70
83770;DHT22;73763;48.936;9.300;2023-12-14T09:25:56;7.80;96.70
83770;DHT22;73763;48.936;9.300;2023-12-14T09:28:21;7.80;97.10
83770;DHT22;73763;48.936;9.300;2023-12-14T09:30:51;7.80;97.20
83770;DHT22;73763;48.936;9.300;2023-12-14T09:33:17;7.70;96.90
83770;DHT22;73763;48.936;9.300;2023-12-14T09:35:43;7.70;96.90
83770;DHT22;73763;48.936;9.300;2023-12-14T09:38:08;7.60;97.10
83770;DHT22;73763;48.936;9.300;2023-12-14T09:40:34;7.50;97.40
83770;DHT22;73763;48.936;9.300;2023-12-14T09:43:00;7.70;97.80
83770;DHT22;73763;48.936;9.300;2023-12-14T09:45:29;7.90;97.70
83770;DHT22;73763;48.936;9.300;2023-12-14T09:48:00;8.10;97.30
83770;DHT22;73763;48.936;9.300;2023-12-14T09:50:26;8.40;96.80
83770;DHT22;73763;48.936;9.300;2023-12-14T09:52:51;8.70;96.20
83770;DHT22;73763;48.936;9.300;2023-12-14T09:55:17;8.80;95.40
83770;DHT22;73763;48.936;9.300;2023-12-14T09:57:42;8.90;95.40
83770;DHT22;73763;48.936;9.300;2023-12-14T10:00:08;9.00;95.00
83770;DHT22;73763;48.936;9.300;2023-12-14T10:02:34;8.90;94.90
83770;DHT22;73763;48.936;9.300;2023-12-14T10:05:00;8.80;94.40
83770;DHT22;73763;48.936;9.300;2023-12-14T10:07:25;8.80;94.70
83770;DHT22;73763;48.936;9.300;2023-12-14T10:09:51;8.70;95.10
83770;DHT22;73763;48.936;9.300;2023-12-14T10:12:16;8.60;94.90
83770;DHT22;73763;48.936;9.300;2023-12-14T10:14:42;8.60;95.10
83770;DHT22;73763;48.936;9.300;2023-12-14T10:17:22;8.60;95.40
83770;DHT22;73763;48.936;9.300;2023-12-14T10:19:48;8.60;95.20
83770;DHT22;73763;48.936;9.300;2023-12-14T10:22:15;8.60;95.30
83770;DHT22;73763;48.936;9.300;2023-12-14T10:24:45;8.70;95.40
83770;DHT22;73763;48.936;9.300;2023-12-14T10:27:11;8.60;95.00
83770;DHT22;73763;48.936;9.300;2023-12-14T10:29:37;8.60;95.00
83770;DHT22;73763;48.936;9.300;2023-12-14T10:32:04;8.40;94.80
83770;DHT22;73763;48.936;9.300;2023-12-14T10:34:29;8.40;95.00
83770;DHT22;73763;48.936;9.300;2023-12-14T10:36:55;8.40;95.00
83770;DHT22;73763;48.936;9.300;2023-12-14T10:39:21;8.40;94.90
83770;DHT22;73763;48.936;9.300;2023-12-14T10:41:47;8.30;94.60
83770;DHT22;73763;48.936;9.300;2023-12-14T10:44:13;8.30;95.20
83770;DHT22;73763;48.936;9.300;2023-12-14T10:46:39;8.30;95.60
83770;DHT22;73763;48.936;9.300;2023-12-14T10:49:05;8.50;95.80
83770;DHT22;73763;48.936;9.300;2023-12-14T10:51:31;8.40;95.60
83770;DHT22;73763;48.936;9.300;2023-12-14T10:53:57;8.50;95.30
83770;DHT22;73763;48.936;9.300;2023-12-14T10:56:23;8.50;94.90
83770;DHT22;73763;48.936;9.300;2023-12-14T10:58:54;8.50;95.00
83770;DHT22;73763;48.936;9.300;2023-12-14T11:01:22;8.40;95.00
83770;DHT22;73763;48.936;9.300;2023-12-14T11:03:48;8.50;95.30
83770;DHT22;73763;48.936;9.300;2023-12-14T11:08:51;8.40;95.20
83770;DHT22;73763;48.936;9.300;2023-12-14T11:11:17;8.40;95.00
83770;DHT22;73763;48.936;9.300;2023-12-14T11:13:43;8.40;95.10
83770;DHT22;73763;48.936;9.300;2023-12-14T11:16:08;8.50;95.20
83770;DHT22;73763;48.936;9.300;2023-12-14T11:18:34;8.50;95.10
83770;DHT22;73763;48.936;9.300;2023-12-14T11:21:01;8.50;95.30
83770;DHT22;73763;48.936;9.300;2023-12-14T11:23:27;8.50;95.00
83770;DHT22;73763;48.936;9.300;2023-12-14T11:25:56;8.60;94.70
83770;DHT22;73763;48.936;9.300;2023-12-14T11:28:22;8.60;94.70
83770;DHT22;73763;48.936;9.300;2023-12-14T11:30:49;8.60;94.50
83770;DHT22;73763;48.936;9.300;2023-12-14T11:33:16;8.70;94.60
83770;DHT22;73763;48.936;9.300;2023-12-14T11:35:41;8.70;94.30
83770;DHT22;73763;48.936;9.300;2023-12-14T11:38:07;8.70;94.30
83770;DHT22;73763;48.936;9.300;2023-12-14T11:40:33;8.70;94.60
83770;DHT22;73763;48.936;9.300;2023-12-14T11:42:59;8.80;94.40
83770;DHT22;73763;48.936;9.300;2023-12-14T11:45:24;8.80;94.50
83770;DHT22;73763;48.936;9.300;2023-12-14T11:47:50;8.90;94.00
83770;DHT22;73763;48.936;9.300;2023-12-14T11:50:15;8.80;93.80
83770;DHT22;73763;48.936;9.300;2023-12-14T11:52:41;8.90;94.60
83770;DHT22;73763;48.936;9.300;2023-12-14T11:55:07;8.90;94.30
83770;DHT22;73763;48.936;9.300;2023-12-14T11:57:32;8.80;93.50
83770;DHT22;73763;48.936;9.300;2023-12-14T11:59:59;8.80;94.10
83770;DHT22;73763;48.936;9.300;2023-12-14T12:02:24;8.80;94.40
83770;DHT22;73763;48.936;9.300;2023-12-14T12:04:50;8.70;94.20
83770;DHT22;73763;48.936;9.300;2023-12-14T12:07:16;8.80;94.40
83770;DHT22;73763;48.936;9.300;2023-12-14T12:09:42;9.00;94.60
83770;DHT22;73763;48.936;9.300;2023-12-14T12:12:10;9.10;94.40
83770;DHT22;73763;48.936;9.300;2023-12-14T12:14:36;9.30;94.00
83770;DHT22;73763;48.936;9.300;2023-12-14T12:17:03;9.60;93.20
83770;DHT22;73763;48.936;9.300;2023-12-14T12:19:29;9.60;92.50
83770;DHT22;73763;48.936;9.300;2023-12-14T12:21:54;9.50;92.70
83770;DHT22;73763;48.936;9.300;2023-12-14T12:24:20;9.40;92.60
83770;DHT22;73763;48.936;9.300;2023-12-14T12:26:45;9.40;92.80
83770;DHT22;73763;48.936;9.300;2023-12-14T12:29:11;9.50;92.80
83770;DHT22;73763;48.936;9.300;2023-12-14T12:31:36;9.60;92.50
83770;DHT22;73763;48.936;9.300;2023-12-14T12:34:02;9.70;92.40
83770;DHT22;73763;48.936;9.300;2023-12-14T12:36:29;9.70;92.80
83770;DHT22;73763;48.936;9.300;2023-12-14T12:38:54;9.70;92.10
83770;DHT22;73763;48.936;9.300;2023-12-14T12:41:20;9.60;92.90
83770;DHT22;73763;48.936;9.300;2023-12-14T12:43:45;9.40;93.00
83770;DHT22;73763;48.936;9.300;2023-12-14T12:46:11;9.10;92.50
83770;DHT22;73763;48.936;9.300;2023-12-14T12:48:37;8.80;93.00
83770;DHT22;73763;48.936;9.300;2023-12-14T12:51:03;8.60;93.40
83770;DHT22;73763;48.936;9.300;2023-12-14T12:53:28;8.40;93.80
83770;DHT22;73763;48.936;9.300;2023-12-14T12:55:54;8.40;94.20
83770;DHT22;73763;48.936;9.300;2023-12-14T12:58:19;8.40;94.60
83770;DHT22;73763;48.936;9.300;2023-12-14T13:00:45;8.40;94.50
83770;DHT22;73763;48.936;9.300;2023-12-14T13:03:10;8.40;94.70
83770;DHT22;73763;48.936;9.300;2023-12-14T13:05:36;8.40;94.60
83770;DHT22;73763;48.936;9.300;2023-12-14T13:08:01;8.30;94.70
83770;DHT22;73763;48.936;9.300;2023-12-14T13:10:27;8.30;94.30
83770;DHT22;73763;48.936;9.300;2023-12-14T13:12:53;8.20;94.50
83770;DHT22;73763;48.936;9.300;2023-12-14T13:15:19;8.10;94.60
83770;DHT22;73763;48.936;9.300;2023-12-14T13:17:44;7.90;94.60
83770;DHT22;73763;48.936;9.300;2023-12-14T13:20:10;7.70;94.40
83770;DHT22;73763;48.936;9.300;2023-12-14T13:22:35;7.50;94.60
83770;DHT22;73763;48.936;9.300;2023-12-14T13:25:01;7.50;94.90
83770;DHT22;73763;48.936;9.300;2023-12-14T13:27:26;7.40;94.70
83770;DHT22;73763;48.936;9.300;2023-12-14T13:29:52;7.40;94.90
83770;DHT22;73763;48.936;9.300;2023-12-14T13:32:18;7.40;95.50
83770;DHT22;73763;48.936;9.300;2023-12-14T13:34:43;7.40;95.30
83770;DHT22;73763;48.936;9.300;2023-12-14T13:37:09;7.40;95.50
83770;DHT22;73763;48.936;9.300;2023-12-14T13:39:35;7.40;95.20
83770;DHT22;73763;48.936;9.300;2023-12-14T13:42:00;7.30;95.30
83770;DHT22;73763;48.936;9.300;2023-12-14T13:44:26;7.30;95.30
83770;DHT22;73763;48.936;9.300;2023-12-14T13:46:55;7.20;95.40
83770;DHT22;73763;48.936;9.300;2023-12-14T13:49:20;7.10;95.70
83770;DHT22;73763;48.936;9.300;2023-12-14T13:51:46;7.10;96.00
83770;DHT22;73763;48.936;9.300;2023-12-14T13:54:11;7.10;96.30
83770;DHT22;73763;48.936;9.300;2023-12-14T13:56:38;7.20;96.50
83770;DHT22;73763;48.936;9.300;2023-12-14T13:59:03;7.20;96.40
83770;DHT22;73763;48.936;9.300;2023-12-14T14:01:29;7.20;96.40
83770;DHT22;73763;48.936;9.300;2023-12-14T14:03:54;7.20;96.60
83770;DHT22;73763;48.936;9.300;2023-12-14T14:06:20;7.30;96.80
83770;DHT22;73763;48.936;9.300;2023-12-14T14:08:45;7.20;96.70
83770;DHT22;73763;48.936;9.300;2023-12-14T14:11:11;7.20;96.70
83770;DHT22;73763;48.936;9.300;2023-12-14T14:13:36;7.20;96.80
83770;DHT22;73763;48.936;9.300;2023-12-14T14:16:02;7.10;96.90
83770;DHT22;73763;48.936;9.300;2023-12-14T14:18:27;7.10;97.00
83770;DHT22;73763;48.936;9.300;2023-12-14T14:20:53;7.10;97.20
83770;DHT22;73763;48.936;9.300;2023-12-14T14:23:19;7.10;97.10
83770;DHT22;73763;48.936;9.300;2023-12-14T14:25:45;7.10;97.10
83770;DHT22;73763;48.936;9.300;2023-12-14T14:28:10;7.10;97.20
83770;DHT22;73763;48.936;9.300;2023-12-14T14:30:36;7.10;97.40
83770;DHT22;73763;48.936;9.300;2023-12-14T14:33:01;7.10;97.30
83770;DHT22;73763;48.936;9.300;2023-12-14T14:35:27;7.10;97.40
83770;DHT22;73763;48.936;9.300;2023-12-14T14:37:52;7.10;97.40
83770;DHT22;73763;48.936;9.300;2023-12-14T14:40:18;7.10;97.50
83770;DHT22;73763;48.936;9.300;2023-12-14T14:42:44;7.00;97.30
83770;DHT22;73763;48.936;9.300;2023-12-14T14:45:10;7.00;97.30
83770;DHT22;73763;48.936;9.300;2023-12-14T14:47:36;7.00;97.30
83770;DHT22;73763;48.936;9.300;2023-12-14T14:50:02;7.00;97.30
83770;DHT22;73763;48.936;9.300;2023-12-14T14:52:28;7.00;97.40
83770;DHT22;73763;48.936;9.300;2023-12-14T14:54:53;6.90;97.50
83770;DHT22;73763;48.936;9.300;2023-12-14T14:57:19;7.00;97.60
83770;DHT22;73763;48.936;9.300;2023-12-14T14:59:44;6.90;97.50
83770;DHT22;73763;48.936;9.300;2023-12-14T15:02:10;6.90;97.70
83770;DHT22;73763;48.936;9.300;2023-12-14T15:04:35;6.90;97.70
83770;DHT22;73763;48.936;9.300;2023-12-14T15:07:01;6.90;97.70
83770;DHT22;73763;48.936;9.300;2023-12-14T15:09:26;6.90;97.80
83770;DHT22;73763;48.936;9.300;2023-12-14T15:11:52;6.90;97.80
83770;DHT22;73763;48.936;9.300;2023-12-14T15:14:17;6.90;97.80
83770;DHT22;73763;48.936;9.300;2023-12-14T15:16:43;6.80;97.90
83770;DHT22;73763;48.936;9.300;2023-12-14T15:19:08;6.90;98.10
83770;DHT22;73763;48.936;9.300;2023-12-14T15:21:34;6.80;98.10
83770;DHT22;73763;48.936;9.300;2023-12-14T15:23:59;6.80;98.10
83770;DHT22;73763;48.936;9.300;2023-12-14T15:26:25;6.80;98.10
83770;DHT22;73763;48.936;9.300;2023-12-14T15:28:50;6.80;98.00
83770;DHT22;73763;48.936;9.300;2023-12-14T15:31:16;6.80;98.00
83770;DHT22;73763;48.936;9.300;2023-12-14T15:33:41;6.80;97.90
83770;DHT22;73763;48.936;9.300;2023-12-14T15:36:07;6.80;97.80
83770;DHT22;73763;48.936;9.300;2023-12-14T15:38:33;6.80;97.70